createdAt,value
2018-03-27T00:02:22.496Z,88.01
2018-03-27T00:04:50.481Z,87.81
2018-03-27T00:07:19.293Z,87.36
2018-03-27T00:09:47.355Z,87.26
2018-03-27T00:12:15.929Z,87.31
2018-03-27T00:14:44.002Z,87.31
2018-03-27T00:17:12.079Z,87.67
2018-03-27T00:19:40.468Z,87.64
2018-03-27T00:22:09.089Z,88.15
2018-03-27T00:24:42.007Z,88.34
2018-03-27T00:27:09.589Z,87.57
2018-03-27T00:29:49.478Z,86.89
2018-03-27T00:32:29.390Z,87.43
2018-03-27T00:35:09.472Z,87.05
2018-03-27T00:37:49.216Z,87.35
2018-03-27T00:40:29.040Z,87.22
2018-03-27T00:42:57.088Z,87.31
2018-03-27T00:45:25.747Z,87.28
2018-03-27T00:47:53.791Z,87.44
2018-03-27T00:50:21.804Z,87.38
2018-03-27T00:52:49.836Z,87.74
2018-03-27T00:55:17.842Z,88.23
2018-03-27T00:57:45.836Z,87.83
2018-03-27T01:00:13.865Z,87.82
2018-03-27T01:02:41.910Z,88.35
2018-03-27T01:05:09.920Z,88.77
2018-03-27T01:07:37.980Z,88.77
2018-03-27T01:10:05.964Z,88.67
2018-03-27T01:12:33.993Z,89.54
2018-03-27T01:15:02.822Z,89.60
2018-03-27T01:17:30.863Z,89.05
2018-03-27T01:19:58.881Z,88.82
2018-03-27T01:22:26.989Z,88.55
2018-03-27T01:24:55.040Z,88.12
2018-03-27T01:27:23.033Z,88.66
2018-03-27T01:29:51.042Z,88.65
2018-03-27T01:32:19.071Z,88.72
2018-03-27T01:34:47.074Z,88.89
2018-03-27T01:37:15.138Z,88.82
2018-03-27T01:39:43.157Z,88.35
2018-03-27T01:42:11.234Z,88.64
2018-03-27T01:44:39.226Z,88.70
2018-03-27T01:47:07.456Z,88.95
2018-03-27T01:49:35.442Z,88.69
2018-03-27T01:52:03.494Z,88.67
2018-03-27T01:54:31.485Z,88.64
2018-03-27T01:56:59.498Z,88.12
2018-03-27T01:59:27.530Z,88.11
2018-03-27T02:01:55.519Z,88.61
2018-03-27T02:04:23.566Z,88.67
2018-03-27T02:06:51.588Z,88.67
2018-03-27T02:09:19.578Z,88.77
2018-03-27T02:11:53.268Z,89.22
2018-03-27T02:14:27.029Z,89.15
2018-03-27T02:17:00.666Z,89.76
2018-03-27T02:19:34.391Z,89.84
2018-03-27T02:22:01.911Z,89.96
2018-03-27T02:24:32.153Z,89.58
2018-03-27T02:27:00.170Z,89.73
2018-03-27T02:29:28.654Z,89.66
2018-03-27T02:31:56.775Z,90.02
2018-03-27T02:34:25.591Z,89.74
2018-03-27T02:36:53.577Z,89.67
2018-03-27T02:39:21.701Z,89.49
2018-03-27T02:41:49.738Z,89.43
2018-03-27T02:44:17.757Z,89.66
2018-03-27T02:46:46.474Z,89.44
2018-03-27T02:49:14.495Z,89.20
2018-03-27T02:51:42.515Z,89.45
2018-03-27T02:54:10.520Z,88.96
2018-03-27T02:56:39.461Z,88.83
2018-03-27T02:59:07.406Z,88.64
2018-03-27T03:01:35.354Z,88.59
2018-03-27T03:04:03.340Z,88.64
2018-03-27T03:06:31.305Z,88.65
2018-03-27T03:08:59.427Z,89.57
2018-03-27T03:11:27.357Z,89.85
2018-03-27T03:13:55.297Z,89.84
2018-03-27T03:16:23.417Z,89.92
2018-03-27T03:18:51.415Z,90.50
2018-03-27T03:21:19.354Z,90.25
2018-03-27T03:23:47.297Z,90.60
2018-03-27T03:26:15.244Z,90.27
2018-03-27T03:28:43.194Z,90.53
2018-03-27T03:31:11.283Z,90.95
2018-03-27T03:33:39.584Z,91.18
2018-03-27T03:36:07.545Z,90.79
2018-03-27T03:38:35.527Z,91.03
2018-03-27T03:41:03.483Z,91.12
2018-03-27T03:43:31.384Z,90.66
2018-03-27T03:45:59.355Z,93.96
2018-03-27T03:48:27.287Z,90.18
2018-03-27T03:50:55.326Z,88.45
2018-03-27T03:53:23.249Z,88.99
2018-03-27T03:55:51.211Z,90.37
2018-03-27T03:58:20.124Z,90.89
2018-03-27T04:00:48.097Z,92.12
2018-03-27T04:03:16.041Z,91.21
2018-03-27T04:05:43.991Z,91.33
2018-03-27T04:08:11.941Z,90.67
2018-03-27T04:10:39.911Z,90.89
2018-03-27T04:13:07.853Z,90.91
2018-03-27T04:15:40.091Z,90.62
2018-03-27T04:18:08.075Z,90.69
2018-03-27T04:20:36.374Z,90.70
2018-03-27T04:23:04.293Z,90.48
2018-03-27T04:25:32.219Z,91.05
2018-03-27T04:28:01.041Z,91.24
2018-03-27T04:30:29.051Z,91.50
2018-03-27T04:32:56.996Z,91.21
2018-03-27T04:35:24.946Z,91.76
2018-03-27T04:37:52.869Z,91.67
2018-03-27T04:40:20.785Z,91.66
2018-03-27T04:42:49.610Z,91.92
2018-03-27T04:45:17.689Z,92.63
2018-03-27T04:47:45.677Z,93.03
2018-03-27T04:50:15.930Z,92.69
2018-03-27T04:52:44.061Z,92.98
2018-03-27T04:55:12.088Z,92.80
2018-03-27T04:57:40.088Z,92.52
2018-03-27T05:00:08.043Z,92.75
2018-03-27T05:02:36.737Z,92.82
2018-03-27T05:05:04.672Z,92.95
2018-03-27T05:07:32.617Z,92.85
2018-03-27T05:10:00.556Z,92.56
2018-03-27T05:12:28.534Z,92.92
2018-03-27T05:14:56.558Z,93.00
2018-03-27T05:17:24.528Z,92.53
2018-03-27T05:19:52.485Z,92.08
2018-03-27T05:22:20.439Z,92.58
2018-03-27T05:24:48.408Z,92.81
2018-03-27T05:27:17.142Z,92.92
2018-03-27T05:29:45.109Z,93.02
2018-03-27T05:32:13.123Z,93.30
2018-03-27T05:34:41.121Z,93.04
2018-03-27T05:37:09.769Z,92.81
2018-03-27T05:39:37.718Z,92.89
2018-03-27T05:42:05.759Z,92.47
2018-03-27T05:44:33.707Z,92.21
2018-03-27T05:47:01.639Z,92.28
2018-03-27T05:49:29.586Z,92.52
2018-03-27T05:51:57.533Z,92.46
2018-03-27T05:54:25.513Z,92.43
2018-03-27T05:56:53.485Z,91.72
2018-03-27T05:59:22.449Z,91.90
2018-03-27T06:01:50.417Z,91.90
2018-03-27T06:04:18.343Z,91.85
2018-03-27T06:06:46.293Z,91.81
2018-03-27T06:09:14.693Z,91.75
2018-03-27T06:11:42.665Z,91.82
2018-03-27T06:14:10.626Z,91.50
2018-03-27T06:16:38.598Z,91.72
2018-03-27T06:19:06.551Z,91.31
2018-03-27T06:21:34.786Z,93.21
2018-03-27T06:24:02.862Z,91.40
2018-03-27T06:26:30.805Z,90.45
2018-03-27T06:28:58.752Z,90.12
2018-03-27T06:31:27.442Z,88.45
2018-03-27T06:33:55.361Z,88.72
2018-03-27T06:36:23.325Z,88.34
2018-03-27T06:38:51.302Z,86.78
2018-03-27T06:41:19.742Z,87.48
2018-03-27T06:43:47.732Z,86.12
2018-03-27T06:46:16.007Z,87.35
2018-03-27T06:48:44.002Z,87.40
2018-03-27T06:51:11.943Z,88.31
2018-03-27T06:53:40.680Z,87.47
2018-03-27T06:56:08.637Z,87.32
2018-03-27T06:58:36.589Z,87.33
2018-03-27T07:01:04.909Z,87.45
2018-03-27T07:03:33.044Z,87.55
2018-03-27T07:06:01.161Z,86.51
2018-03-27T07:08:29.751Z,85.88
2018-03-27T07:10:57.793Z,86.05
2018-03-27T07:13:25.865Z,86.76
2018-03-27T07:15:53.826Z,86.48
2018-03-27T07:18:22.768Z,87.03
2018-03-27T07:20:50.829Z,86.70
2018-03-27T07:23:18.869Z,86.62
2018-03-27T07:25:47.132Z,86.30
2018-03-27T07:28:15.092Z,85.66
2018-03-27T07:30:43.127Z,85.42
2018-03-27T07:33:11.096Z,86.06
2018-03-27T07:35:41.106Z,86.93
2018-03-27T07:38:09.788Z,86.75
2018-03-27T07:40:37.745Z,86.35
2018-03-27T07:43:06.303Z,86.36
2018-03-27T07:45:35.268Z,85.26
2018-03-27T07:48:03.262Z,86.07
2018-03-27T07:50:31.219Z,86.25
2018-03-27T07:52:59.129Z,85.55
2018-03-27T07:55:27.119Z,85.30
2018-03-27T07:57:55.729Z,85.32
2018-03-27T08:00:23.782Z,84.32
2018-03-27T08:02:51.742Z,83.74
2018-03-27T08:05:19.883Z,83.81
2018-03-27T08:07:47.807Z,85.16
2018-03-27T08:10:15.874Z,85.13
2018-03-27T08:12:46.058Z,83.27
2018-03-27T08:15:13.981Z,83.82
2018-03-27T08:17:41.952Z,85.26
2018-03-27T08:20:09.892Z,84.29
2018-03-27T08:22:37.834Z,84.38
2018-03-27T08:25:05.749Z,84.12
2018-03-27T08:27:33.792Z,83.41
2018-03-27T08:30:01.757Z,84.03
2018-03-27T08:32:30.588Z,84.04
2018-03-27T08:34:58.571Z,82.69
2018-03-27T08:37:26.743Z,84.26
2018-03-27T08:39:55.625Z,84.46
2018-03-27T08:42:23.584Z,84.79
2018-03-27T08:44:51.548Z,85.45
2018-03-27T08:47:19.481Z,86.14
2018-03-27T08:49:47.694Z,85.20
2018-03-27T08:52:15.890Z,84.91
2018-03-27T08:54:43.876Z,84.46
2018-03-27T08:57:11.806Z,84.80
2018-03-27T08:59:39.755Z,84.48
2018-03-27T09:02:07.709Z,84.58
2018-03-27T09:04:35.654Z,83.84
2018-03-27T09:07:03.662Z,83.22
2018-03-27T09:09:31.636Z,84.28
2018-03-27T09:11:59.633Z,84.20
2018-03-27T09:14:27.601Z,83.76
2018-03-27T09:16:55.705Z,84.06
2018-03-27T09:19:23.943Z,84.52
2018-03-27T09:21:51.886Z,84.10
2018-03-27T09:24:20.615Z,83.32
2018-03-27T09:26:48.566Z,81.99
2018-03-27T09:29:16.524Z,81.99
2018-03-27T09:31:45.980Z,81.46
2018-03-27T09:34:13.889Z,81.39
2018-03-27T09:36:41.832Z,81.26
2018-03-27T09:39:09.798Z,80.09
2018-03-27T09:41:37.772Z,78.99
2018-03-27T09:44:05.739Z,79.67
2018-03-27T09:46:34.998Z,78.88
2018-03-27T09:49:02.917Z,78.40
2018-03-27T09:51:30.880Z,79.48
2018-03-27T09:53:58.818Z,78.52
2018-03-27T09:56:26.847Z,74.26
2018-03-27T09:58:54.778Z,71.93
2018-03-27T10:01:27.668Z,71.33
2018-03-27T10:03:55.613Z,70.02
2018-03-27T10:06:23.545Z,70.76
2018-03-27T10:08:51.665Z,70.16
2018-03-27T10:11:19.546Z,68.21
2018-03-27T10:13:47.557Z,67.94
2018-03-27T10:16:15.926Z,67.97
2018-03-27T10:18:43.858Z,63.83
2018-03-27T10:21:11.802Z,62.05
2018-03-27T10:23:39.738Z,60.99
2018-03-27T10:26:07.680Z,61.94
2018-03-27T10:28:35.604Z,60.06
2018-03-27T10:31:03.579Z,55.20
2018-03-27T10:33:31.509Z,55.16
2018-03-27T10:35:59.504Z,56.05
2018-03-27T10:38:27.472Z,58.10
2018-03-27T10:40:55.411Z,56.68
2018-03-27T10:43:23.723Z,54.51
2018-03-27T10:45:51.666Z,52.94
2018-03-27T10:48:19.630Z,51.74
2018-03-27T10:50:47.614Z,53.23
2018-03-27T10:53:15.571Z,55.39
2018-03-27T10:55:43.580Z,55.24
2018-03-27T10:58:11.515Z,52.58
2018-03-27T11:00:39.483Z,49.78
2018-03-27T11:03:07.431Z,49.45
2018-03-27T11:05:35.350Z,51.74
2018-03-27T11:08:03.356Z,54.52
2018-03-27T11:10:31.328Z,49.83
2018-03-27T11:12:59.293Z,47.18
2018-03-27T11:15:27.304Z,50.00
2018-03-27T11:17:55.267Z,46.18
2018-03-27T11:20:23.177Z,46.03
2018-03-27T11:22:51.128Z,46.71
2018-03-27T11:25:19.069Z,48.88
2018-03-27T11:27:47.006Z,47.35
2018-03-27T11:30:15.455Z,46.31
2018-03-27T11:32:43.405Z,46.38
2018-03-27T11:35:11.358Z,44.90
2018-03-27T11:37:39.301Z,43.03
2018-03-27T11:40:07.223Z,47.22
2018-03-27T11:42:35.160Z,47.18
2018-03-27T11:45:03.084Z,46.27
2018-03-27T11:47:31.002Z,46.77
2018-03-27T11:49:58.932Z,48.22
2018-03-27T11:52:26.860Z,46.80
2018-03-27T11:54:55.792Z,46.81
2018-03-27T11:57:23.705Z,46.42
2018-03-27T11:59:51.614Z,45.14
2018-03-27T12:02:19.543Z,44.85
2018-03-27T12:04:47.463Z,44.45
2018-03-27T12:07:15.419Z,44.58
2018-03-27T12:09:43.348Z,43.57
2018-03-27T12:12:11.292Z,42.21
2018-03-27T12:14:39.215Z,41.55
2018-03-27T12:17:07.106Z,40.71
2018-03-27T12:19:35.025Z,39.19
2018-03-27T12:22:03.023Z,37.45
2018-03-27T12:24:30.985Z,39.03
2018-03-27T12:26:58.918Z,40.63
2018-03-27T12:29:26.820Z,40.16
2018-03-27T12:31:54.773Z,42.64
2018-03-27T12:34:22.690Z,45.98
2018-03-27T12:36:50.623Z,47.89
2018-03-27T12:39:18.970Z,46.62
2018-03-27T12:41:46.909Z,48.99
2018-03-27T12:44:14.827Z,50.64
2018-03-27T12:46:42.745Z,45.45
2018-03-27T12:49:10.655Z,46.04
2018-03-27T12:51:38.573Z,46.19
2018-03-27T12:54:06.489Z,45.56
2018-03-27T12:56:34.410Z,46.66
2018-03-27T12:59:02.343Z,46.31
2018-03-27T13:01:30.217Z,46.70
2018-03-27T13:03:58.158Z,45.64
2018-03-27T13:06:26.096Z,42.92
2018-03-27T13:08:54.073Z,44.00
2018-03-27T13:11:21.958Z,45.24
2018-03-27T13:13:50.208Z,46.15
2018-03-27T13:16:18.136Z,44.61
2018-03-27T13:18:46.073Z,45.80
2018-03-27T13:21:14.013Z,46.73
2018-03-27T13:23:41.942Z,49.14
2018-03-27T13:26:10.088Z,48.88
2018-03-27T13:28:38.005Z,47.86
2018-03-27T13:31:05.928Z,48.50
2018-03-27T13:33:33.874Z,50.18
2018-03-27T13:36:01.784Z,48.35
2018-03-27T13:38:29.695Z,48.39
2018-03-27T13:40:57.626Z,46.44
2018-03-27T13:43:25.533Z,47.83
2018-03-27T13:45:53.522Z,45.59
2018-03-27T13:48:21.433Z,44.89
2018-03-27T13:50:49.352Z,44.89
2018-03-27T13:53:17.303Z,44.86
2018-03-27T13:55:45.212Z,46.18
2018-03-27T13:58:13.144Z,44.19
2018-03-27T14:00:41.051Z,46.25
2018-03-27T14:03:08.956Z,48.57
2018-03-27T14:05:36.901Z,47.46
2018-03-27T14:08:04.813Z,49.04
2018-03-27T14:10:32.748Z,49.37
2018-03-27T14:13:00.698Z,47.47
2018-03-27T14:15:28.634Z,46.44
2018-03-27T14:17:56.560Z,46.76
2018-03-27T14:20:24.568Z,47.05
2018-03-27T14:22:56.261Z,48.76
2018-03-27T14:25:24.175Z,48.74
2018-03-27T14:27:52.105Z,50.13
2018-03-27T14:30:20.074Z,50.76
2018-03-27T14:32:47.987Z,52.33
2018-03-27T14:35:15.914Z,51.07
2018-03-27T14:37:43.866Z,51.21
2018-03-27T14:40:11.824Z,52.41
2018-03-27T14:42:39.821Z,52.01
2018-03-27T14:45:07.752Z,51.57
2018-03-27T14:47:35.798Z,51.38
2018-03-27T14:50:03.701Z,52.08
2018-03-27T14:52:31.646Z,50.98
2018-03-27T14:54:59.566Z,51.24
2018-03-27T14:57:27.538Z,51.09
2018-03-27T14:59:55.476Z,51.66
2018-03-27T15:02:23.424Z,51.36
2018-03-27T15:04:51.379Z,51.07
2018-03-27T15:07:19.308Z,52.25
2018-03-27T15:09:47.236Z,51.62
2018-03-27T15:12:15.161Z,52.01
2018-03-27T15:14:43.208Z,51.72
2018-03-27T15:17:11.130Z,52.62
2018-03-27T15:19:39.070Z,53.60
2018-03-27T15:22:06.994Z,54.02
2018-03-27T15:24:34.936Z,54.59
2018-03-27T15:27:02.933Z,55.07
2018-03-27T15:29:30.867Z,58.82
2018-03-27T15:31:58.796Z,60.68
2018-03-27T15:34:27.464Z,59.83
2018-03-27T15:36:55.383Z,61.34
2018-03-27T15:39:23.345Z,62.02
2018-03-27T15:41:52.798Z,61.54
2018-03-27T15:44:20.889Z,61.44
2018-03-27T15:46:48.845Z,60.99
2018-03-27T15:49:16.938Z,61.71
2018-03-27T15:51:44.850Z,61.62
2018-03-27T15:54:12.985Z,61.57
2018-03-27T15:56:41.090Z,62.15
2018-03-27T15:59:10.137Z,62.57
2018-03-27T16:01:38.231Z,61.07
2018-03-27T16:04:06.193Z,60.57
2018-03-27T16:06:34.158Z,60.30
2018-03-27T16:09:02.082Z,60.25
2018-03-27T16:11:31.123Z,61.02
2018-03-27T16:14:00.800Z,60.65
2018-03-27T16:16:28.738Z,60.91
2018-03-27T16:18:56.644Z,62.51
2018-03-27T16:21:24.560Z,62.46
2018-03-27T16:23:52.518Z,62.24
2018-03-27T16:26:20.417Z,62.70
2018-03-27T16:28:48.390Z,63.10
2018-03-27T16:31:16.301Z,64.43
2018-03-27T16:33:44.304Z,63.55
2018-03-27T16:36:12.228Z,63.99
2018-03-27T16:38:40.158Z,64.28
2018-03-27T16:41:08.124Z,65.01
2018-03-27T16:43:36.081Z,65.21
2018-03-27T16:46:04.009Z,65.63
2018-03-27T16:48:31.951Z,65.31
2018-03-27T16:50:59.926Z,65.40
2018-03-27T16:53:27.861Z,66.41
2018-03-27T16:55:55.808Z,67.46
2018-03-27T16:58:23.753Z,67.84
2018-03-27T17:00:51.659Z,68.09
2018-03-27T17:03:19.601Z,68.51
2018-03-27T17:05:47.514Z,69.24
2018-03-27T17:08:15.437Z,69.58
2018-03-27T17:10:43.358Z,70.04
2018-03-27T17:13:11.318Z,70.34
2018-03-27T17:15:39.272Z,70.66
2018-03-27T17:18:07.253Z,69.99
2018-03-27T17:20:35.169Z,70.01
2018-03-27T17:23:03.095Z,70.48
2018-03-27T17:25:31.006Z,70.01
2018-03-27T17:27:58.942Z,70.02
2018-03-27T17:30:26.847Z,70.19
2018-03-27T17:32:54.843Z,70.28
2018-03-27T17:35:22.764Z,71.01
2018-03-27T17:37:50.701Z,70.16
2018-03-27T17:40:18.610Z,70.60
2018-03-27T17:42:46.569Z,70.24
2018-03-27T17:45:14.485Z,69.76
2018-03-27T17:47:42.413Z,69.31
2018-03-27T17:50:10.342Z,69.20
2018-03-27T17:52:38.283Z,69.61
2018-03-27T17:55:06.202Z,69.78
2018-03-27T17:57:34.152Z,70.42
2018-03-27T18:00:02.057Z,69.93
2018-03-27T18:02:29.988Z,69.59
2018-03-27T18:04:57.931Z,69.92
2018-03-27T18:07:25.867Z,70.03
2018-03-27T18:09:53.760Z,69.44
2018-03-27T18:12:21.684Z,70.75
2018-03-27T18:14:49.642Z,70.68
2018-03-27T18:17:17.546Z,71.03
2018-03-27T18:19:45.458Z,71.39
2018-03-27T18:22:13.377Z,71.41
2018-03-27T18:24:41.314Z,71.71
2018-03-27T18:27:09.269Z,71.65
2018-03-27T18:29:37.200Z,71.80
2018-03-27T18:32:05.114Z,71.79
2018-03-27T18:34:33.240Z,71.15
2018-03-27T18:37:01.190Z,72.38
2018-03-27T18:39:29.123Z,72.00
2018-03-27T18:41:57.809Z,72.14
2018-03-27T18:44:25.766Z,72.46
2018-03-27T18:46:53.700Z,73.09
2018-03-27T18:49:21.614Z,73.17
2018-03-27T18:51:49.537Z,73.54
2018-03-27T18:54:17.448Z,74.58
2018-03-27T18:56:45.385Z,76.01
2018-03-27T18:59:13.304Z,75.38
2018-03-27T19:01:41.233Z,74.61
2018-03-27T19:04:09.149Z,74.85
2018-03-27T19:06:37.115Z,74.94
2018-03-27T19:09:05.058Z,75.41
2018-03-27T19:11:32.988Z,74.93
2018-03-27T19:14:01.231Z,74.88
2018-03-27T19:16:29.157Z,75.31
2018-03-27T19:18:57.061Z,75.05
2018-03-27T19:21:24.978Z,75.15
2018-03-27T19:23:52.885Z,75.18
2018-03-27T19:26:20.821Z,75.28
2018-03-27T19:28:48.737Z,75.51
2018-03-27T19:31:16.851Z,75.32
2018-03-27T19:33:44.782Z,75.60
2018-03-27T19:36:12.797Z,75.63
2018-03-27T19:38:40.692Z,75.18
2018-03-27T19:41:08.598Z,75.54
2018-03-27T19:43:37.246Z,75.49
2018-03-27T19:46:05.354Z,75.41
2018-03-27T19:48:33.283Z,75.76
2018-03-27T19:51:01.218Z,75.50
2018-03-27T19:53:29.141Z,75.30
2018-03-27T19:55:57.064Z,75.18
2018-03-27T19:58:25.021Z,75.74
2018-03-27T20:00:53.001Z,76.13
2018-03-27T20:03:21.822Z,75.67
2018-03-27T20:05:49.757Z,77.07
2018-03-27T20:08:17.675Z,77.55
2018-03-27T20:10:45.665Z,78.06
2018-03-27T20:13:13.618Z,77.75
2018-03-27T20:15:42.120Z,77.98
2018-03-27T20:18:09.471Z,77.86
2018-03-27T20:20:37.775Z,77.67
2018-03-27T20:23:05.699Z,78.43
2018-03-27T20:25:33.620Z,78.82
2018-03-27T20:28:01.570Z,78.88
2018-03-27T20:30:29.484Z,78.27
2018-03-27T20:32:57.547Z,78.46
2018-03-27T20:35:25.469Z,78.98
2018-03-27T20:37:53.412Z,78.75
2018-03-27T20:40:21.343Z,78.47
2018-03-27T20:42:49.350Z,78.39
2018-03-27T20:45:17.304Z,78.93
2018-03-27T20:47:45.228Z,78.74
2018-03-27T20:50:13.179Z,79.60
2018-03-27T20:52:41.101Z,79.67
2018-03-27T20:55:09.044Z,79.18
2018-03-27T20:57:37.062Z,79.51
2018-03-27T21:00:04.972Z,79.61
2018-03-27T21:02:32.923Z,80.04
2018-03-27T21:05:00.872Z,80.12
2018-03-27T21:07:29.405Z,79.90
2018-03-27T21:09:57.400Z,80.58
2018-03-27T21:12:25.327Z,80.69
2018-03-27T21:14:53.285Z,81.02
2018-03-27T21:17:21.309Z,81.17
2018-03-27T21:19:49.325Z,80.69
2018-03-27T21:22:17.252Z,80.64
2018-03-27T21:24:45.195Z,80.80
2018-03-27T21:27:13.109Z,80.78
2018-03-27T21:29:41.028Z,81.47
2018-03-27T21:32:08.988Z,81.42
2018-03-27T21:34:36.895Z,80.88
2018-03-27T21:37:04.842Z,81.07
2018-03-27T21:39:32.901Z,80.92
2018-03-27T21:42:00.865Z,81.10
2018-03-27T21:44:28.873Z,83.54
2018-03-27T21:46:56.784Z,81.65
2018-03-27T21:49:24.736Z,80.95
2018-03-27T21:51:52.845Z,80.74
2018-03-27T21:54:20.856Z,80.84
2018-03-27T21:56:48.827Z,81.20
2018-03-27T21:59:21.686Z,81.27
2018-03-27T22:01:49.894Z,80.96
2018-03-27T22:04:17.913Z,81.33
2018-03-27T22:06:45.870Z,81.81
2018-03-27T22:09:13.802Z,82.04
2018-03-27T22:11:42.450Z,81.63
2018-03-27T22:14:10.468Z,81.82
2018-03-27T22:16:38.409Z,81.78
2018-03-27T22:19:06.410Z,81.90
2018-03-27T22:21:34.337Z,81.62
2018-03-27T22:24:02.254Z,81.43
2018-03-27T22:26:30.295Z,81.97
2018-03-27T22:28:58.265Z,82.36
2018-03-27T22:31:26.311Z,81.98
2018-03-27T22:33:54.259Z,82.23
2018-03-27T22:36:22.319Z,82.25
2018-03-27T22:38:50.408Z,82.08
2018-03-27T22:41:18.345Z,81.78
2018-03-27T22:43:46.424Z,81.62
2018-03-27T22:46:14.461Z,81.85
2018-03-27T22:48:42.376Z,81.68
2018-03-27T22:51:10.332Z,81.24
2018-03-27T22:53:38.285Z,80.77
2018-03-27T22:56:06.245Z,80.68
2018-03-27T22:58:34.187Z,80.75
2018-03-27T23:01:02.125Z,80.57
2018-03-27T23:03:30.049Z,80.44
2018-03-27T23:05:58.005Z,80.00
2018-03-27T23:08:26.054Z,80.46
2018-03-27T23:10:54.061Z,80.66
2018-03-27T23:13:22.020Z,80.96
2018-03-27T23:15:50.742Z,80.45
2018-03-27T23:18:18.667Z,80.72
2018-03-27T23:20:46.579Z,80.62
2018-03-27T23:23:14.509Z,80.65
2018-03-27T23:25:42.444Z,80.85
2018-03-27T23:28:11.465Z,80.45
2018-03-27T23:30:39.418Z,80.92
2018-03-27T23:33:07.316Z,80.81
2018-03-27T23:35:35.239Z,80.75
2018-03-27T23:38:03.164Z,81.16
2018-03-27T23:40:31.123Z,80.48
2018-03-27T23:42:59.060Z,80.69
2018-03-27T23:45:27.038Z,80.56
2018-03-27T23:47:54.978Z,80.27
2018-03-27T23:50:22.950Z,80.39
2018-03-27T23:52:50.917Z,80.13
2018-03-27T23:55:19.111Z,80.45
2018-03-27T23:57:47.052Z,80.65
